M I D A S
Marine Information and Data Acquisition System
Tripno 65 of the Zeeleeuw from 2001-10-30 07:18:24 to 2001-10-30 16:50:00
Back to CruiseResearch ActivitiesStationsMapUnderway DataData graphs

EquipmentUnitsComment
TimeDGPSUTC
LatitudeDGPSDM.mWGS84
LongitudeDGPSDM.mWGS84
HeadingGyrodeg 
SOGDGPSknotsSpeed over ground
COGDGPSdegCourse over ground
DepthEcho soundermeters200 kHz
Missing or incorrect values are displayed as -999
Navigation data collected by the RV Zeeleeuw from 2001-10-30 07:18:24 to 2001-10-30 16:50:00
Time Latitude Longitude Heading SOG COG Depth
2001-10-30 07:19:44 51°13.639 2°56.013 359.8   55.4 7.5
2001-10-30 07:20:44 51°13.639 2°56.013 0.3   65.5 7.5
2001-10-30 07:21:44 51°13.639 2°56.014     52 7.4
2001-10-30 07:22:44 51°13.639 2°56.013 359.8   34 7.2
2001-10-30 07:23:44 51°13.639 2°56.013     349.5 7.5
2001-10-30 07:24:44 51°13.639 2°56.014 1.2 0.1 40.3 -999
2001-10-30 07:25:44 51°13.639 2°56.013 0.5   47.7 7.2
2001-10-30 07:26:44 51°13.639 2°56.013 359.8   354.2 7.9
2001-10-30 07:27:44 51°13.639 2°56.014 359.7   240.7 -999
2001-10-30 07:28:44 51°13.639 2°56.013 127.3   53.2 -999
2001-10-30 07:29:44 51°13.639 2°56.014 127.7   262.8 7.5
2001-10-30 07:30:44 51°13.639 2°56.013 128   217.5 7.7
2001-10-30 07:31:44 51°13.639 2°56.013 127.8   233 6.9
2001-10-30 07:32:44 51°13.639 2°56.013 129 0.1 190.3 7.3
2001-10-30 07:33:44 51°13.639 2°56.013 128.3   321.2 8
2001-10-30 07:34:44 51°13.64 2°56.012 127.7   148.5 7.3
2001-10-30 07:35:44 51°13.64 2°56.012 128   293.3 7.2
2001-10-30 07:36:44 51°13.64 2°56.012 128.2   188.5 7.3
2001-10-30 07:37:44 51°13.64 2°56.011 127.8   262.6 7.6
2001-10-30 07:38:44 51°13.639 2°56.01 132 0.1 232 7.8
2001-10-30 07:39:45 51°13.638 2°56.007 140.8 0.1 189.3 -999
2001-10-30 07:40:44 51°13.619 2°56.034 139.5 3 136.3 8.3
2001-10-30 07:41:44 51°13.574 2°56.114 125.8 4.2 124 9.7
2001-10-30 07:42:44 51°13.555 2°56.223 98 4.3 97 8.7
2001-10-30 07:43:44 51°13.523 2°56.297 159.7 1.9 152 8.6
2001-10-30 07:44:45 51°13.52 2°56.295 203.2 1.5 198.6 -999
2001-10-30 07:45:44 51°13.509 2°56.277 248.8 0.2 11.8 10.7
2001-10-30 07:46:44 51°13.522 2°56.213 299.3 4.9 296.3 10.5
2001-10-30 07:47:44 51°13.561 2°56.111 303.3 4.2 300.8 9.8
2001-10-30 07:48:44 51°13.595 2°56.022 304 3.9 302.9 -999
2001-10-30 07:49:44 51°13.628 2°55.934 303.8 3.9 301.4 9.3
2001-10-30 07:50:47 51°13.693 2°55.792 313 7.6 309.8 10.9
2001-10-30 07:51:47 51°13.798 2°55.658 336.3 8.4 332.4 10
2001-10-30 07:52:47 51°13.929 2°55.562 340.2 8.8 337.4 10.6
2001-10-30 07:53:47 51°14.074 2°55.462 338.3 10.2 335.7 10.7
2001-10-30 07:54:47 51°14.221 2°55.322 325.5 10.3 323 10.7
2001-10-30 07:55:47 51°14.339 2°55.123 310.5 10.5 308.1 10.6
2001-10-30 07:56:47 51°14.454 2°54.903 326.5 11.2 320.8 10.4
2001-10-30 07:57:47 51°14.617 2°54.711 329.3 12.7 324.1 9.8
2001-10-30 07:58:47 51°14.793 2°54.529 331.5 12.6 326.1 10
2001-10-30 07:59:47 51°14.962 2°54.337 330.8 12.3 325.2 9
2001-10-30 08:00:47 51°15.132 2°54.153 333.3 12.6 326.9 9.3
2001-10-30 08:01:47 51°15.318 2°53.978 337.2 13.1 330.7 9.9
2001-10-30 08:02:47 51°15.51 2°53.806 338.5 13.2 333 10.7
2001-10-30 08:03:47 51°15.703 2°53.635 339.7 13.3 332.8 11.6
2001-10-30 08:04:47 51°15.891 2°53.483 339.5 11.7 332.9 12.2
2001-10-30 08:05:46 51°16.078 2°53.335 340.3 13.1 334.5 12.6
2001-10-30 08:06:47 51°16.279 2°53.176 340.2 13.3 333.2 12.9
2001-10-30 08:07:47 51°16.477 2°53.024 340 13.2 334.3 12.7
2001-10-30 08:08:46 51°16.671 2°52.875 340 13.1 334.4 11.6
2001-10-30 08:09:47 51°16.869 2°52.722 339.5 13 334.2 9.9
2001-10-30 08:10:47 51°17.063 2°52.57 339.7 13.1 333.8 10
2001-10-30 08:11:47 51°17.248 2°52.391 326.5 13.2 320.7 10.8
2001-10-30 08:12:47 51°17.42 2°52.178 330.7 13 324.5 11.1
2001-10-30 08:13:47 51°17.581 2°51.941 321 13.1 314.3 11
2001-10-30 08:14:47 51°17.727 2°51.684 316.3 13.2 310.1 10.5
2001-10-30 08:15:47 51°17.861 2°51.404 314.2 13.4 308.1 11
2001-10-30 08:16:47 51°17.992 2°51.12 309.8 13.3 303.5 12.4
2001-10-30 08:17:47 51°18.115 2°50.826 310.3 13.3 304.1 13.5
2001-10-30 08:18:47 51°18.24 2°50.531 310.7 13.4 304.1 14.2
2001-10-30 08:19:47 51°18.363 2°50.235 310.8 13.4 303 14.8
2001-10-30 08:20:47 51°18.486 2°49.936 310.8 13.5 303.5 14.3
2001-10-30 08:21:46 51°18.609 2°49.642 311 13.5 304 12.4
2001-10-30 08:22:47 51°18.736 2°49.341 310.5 13.4 305.1 11.2
2001-10-30 08:23:47 51°18.866 2°49.047 310.2 13.6 304.6 12.4
2001-10-30 08:24:47 51°18.994 2°48.751 310.2 13.6 304.6 15
2001-10-30 08:25:47 51°19.122 2°48.455 310 13.5 304 16.9
2001-10-30 08:26:46 51°19.246 2°48.162 310.3 13.6 303.9 19.3
2001-10-30 08:27:47 51°19.371 2°47.857 310.8 13.5 303.2 21.5
2001-10-30 08:28:47 51°19.494 2°47.554 311 13.6 302.4 22.6
2001-10-30 08:29:47 51°19.618 2°47.248 311.2 13.7 303.2 22.4
2001-10-30 08:30:47 51°19.742 2°46.942 310 13.7 303.2 21.6
2001-10-30 08:31:47 51°19.864 2°46.638 305.8 13.5 300 18.7
2001-10-30 08:32:47 51°19.927 2°46.288 293 13.8 286.7 15.5
2001-10-30 08:33:47 51°20.013 2°45.954 297.3 13.6 291.4 15.5
2001-10-30 08:34:47 51°20.081 2°45.608 291.8 13.7 286.2 18.9
2001-10-30 08:35:47 51°20.148 2°45.255 292.8 13.9 286.6 23.8
2001-10-30 08:36:47 51°20.215 2°44.906 292.8 13.8 286.8 25.2
2001-10-30 08:37:47 51°20.283 2°44.554 292.5 13.9 286.9 26.6
2001-10-30 08:38:47 51°20.348 2°44.201 292.7 13.8 286.5 28.2
2001-10-30 08:39:47 51°20.406 2°43.847 291 13.8 284.5 28.5
2001-10-30 08:40:47 51°20.464 2°43.497 290.7 13.6 284.8 27.9
2001-10-30 08:41:47 51°20.514 2°43.146 288.3 13.6 282.8 26
2001-10-30 08:42:47 51°20.565 2°42.798 289 13.5 283 22.3
2001-10-30 08:43:47 51°20.616 2°42.45 287.2 13.4 282.4 18.4
2001-10-30 08:44:47 51°20.654 2°42.098 285.5 13.5 280.3 19.4
2001-10-30 08:45:47 51°20.689 2°41.744 282.5 13.6 277.5 23.6
2001-10-30 08:46:47 51°20.718 2°41.39 282.3 13.4 277.5 27.6
2001-10-30 08:47:47 51°20.749 2°41.037 282.5 13.4 277.8 27.7
2001-10-30 08:48:47 51°20.779 2°40.685 282.3 13.2 277.4 26.9
2001-10-30 08:49:47 51°20.81 2°40.334 282.5 13.2 277.8 26.7
2001-10-30 08:50:47 51°20.835 2°39.981 280.2 13.4 274.7 27.6
2001-10-30 08:51:47 51°20.857 2°39.626 280.7 13.2 276.5 26.8
2001-10-30 08:52:47 51°20.874 2°39.27 278.7 13.4 273.3 26.1
2001-10-30 08:53:47 51°20.887 2°38.912 278.7 13.5 273.4 25.6
2001-10-30 08:54:47 51°20.9 2°38.554 278.3 13.3 273 25.8
2001-10-30 08:55:47 51°20.912 2°38.198 279 13.3 273 25.4
2001-10-30 08:56:47 51°20.925 2°37.842 278.3 13.4 273 26.1
2001-10-30 08:57:47 51°20.939 2°37.49 278.5 13.3 273.1 25.5
2001-10-30 08:58:47 51°20.952 2°37.134 279.3 13.4 274.5 24.7
2001-10-30 08:59:47 51°20.967 2°36.78 279 13.3 274 25.5
2001-10-30 09:00:46 51°20.981 2°36.434 278.8 13.2 273.7 26.9
2001-10-30 09:01:47 51°20.998 2°36.071 278.7 13.5 274 26.3
2001-10-30 09:02:47 51°21.015 2°35.715 279.7 13.5 274.7 31.6
2001-10-30 09:03:47 51°21.049 2°35.36 283 13.5 278.3 32.3
2001-10-30 09:04:47 51°21.081 2°35.01 282.8 13.3 278.1 33.8
2001-10-30 09:05:47 51°21.114 2°34.659 282.7 13.4 278.7 32.9
2001-10-30 09:06:47 51°21.15 2°34.308 284.3 13.3 280.4 32.3
2001-10-30 09:07:47 51°21.214 2°33.973 298.8 13.3 294.4 33.1
2001-10-30 09:08:47 51°21.334 2°33.683 315.2 13 310.7 33.3
2001-10-30 09:09:47 51°21.493 2°33.444 322 13.2 317.5 30.1
2001-10-30 09:10:47 51°21.651 2°33.209 323.2 12.9 318.8 25.4
2001-10-30 09:11:47 51°21.815 2°32.99 324.3 12.8 318.6 25
2001-10-30 09:12:47 51°21.976 2°32.766 324 13 318.6 31
2001-10-30 09:13:47 51°22.141 2°32.541 319.8 12.9 315.7 33.1
2001-10-30 09:14:47 51°22.282 2°32.274 313.8 13.1 309.5 33.9
2001-10-30 09:15:46 51°22.407 2°31.996 304.5 13.1 301.5 31.8
2001-10-30 09:16:47 51°22.501 2°31.677 293.3 13.1 290.5 33.1
2001-10-30 09:17:46 51°22.561 2°31.355 281.2 13 279 33
2001-10-30 09:18:47 51°22.586 2°31 276.7 13.3 274.2 31.9
2001-10-30 09:19:47 51°22.606 2°30.65 278 13.2 275.9 32
2001-10-30 09:20:47 51°22.628 2°30.3 277.5 13.2 276.1 34.2
2001-10-30 09:21:47 51°22.602 2°29.961 253 13 251.8 34.2
2001-10-30 09:22:46 51°22.533 2°29.639 252.2 13.1 251.4 35.9
2001-10-30 09:23:47 51°22.442 2°29.314 248.7 13.1 246.2 35
2001-10-30 09:24:47 51°22.385 2°28.982 260.3 12.9 258.1 35.5
2001-10-30 09:25:48 51°22.351 2°28.636 264.8 13 262.8 35.6
2001-10-30 09:26:47 51°22.34 2°28.296 272.8 13 270.6 35.4
2001-10-30 09:27:47 51°22.349 2°27.948 274.5 13.1 271.7 36.1
2001-10-30 09:28:47 51°22.374 2°27.602 279.3 13 276.6 36.3
2001-10-30 09:29:47 51°22.396 2°27.255 279.7 13.2 276.5 37.5
2001-10-30 09:30:47 51°22.437 2°26.912 283.2 13.2 279.9 36.6
2001-10-30 09:31:47 51°22.482 2°26.572 287.8 13.1 284.5 35.6
2001-10-30 09:32:47 51°22.552 2°26.244 293.5 13.1 292.1 34.8
2001-10-30 09:33:47 51°22.64 2°25.926 299.5 13.1 297.8 26.3
2001-10-30 09:34:47 51°22.779 2°25.665 321.3 13 320.8 20
2001-10-30 09:35:47 51°22.953 2°25.453 322 13.3 320.9 29.6
2001-10-30 09:36:47 51°23.14 2°25.259 333.3 13.5 332 35.1
2001-10-30 09:37:46 51°23.338 2°25.113 334.3 13.4 332.6 36.2
2001-10-30 09:38:47 51°23.54 2°24.953 336.3 13.3 334.4 36.8
2001-10-30 09:39:47 51°23.734 2°24.789 336.7 13.2 332.4 36.4
2001-10-30 09:40:48 51°23.936 2°24.633 335.8 13.4 333.4 35
2001-10-30 09:41:47 51°24.138 2°24.505 340 13.3 337.9 37.5
2001-10-30 09:42:47 51°24.346 2°24.379 340.7 13.4 340.8 36
2001-10-30 09:43:48 51°24.552 2°24.231 338 13.5 335.9 33.7
2001-10-30 09:44:47 51°24.757 2°24.104 341.3 13.5 340.8 33.5
2001-10-30 09:45:47 51°24.963 2°23.968 337.8 13.4 334.6 34.6
2001-10-30 09:46:47 51°25.167 2°23.826 341.5 13.4 336.7 35.8
2001-10-30 09:47:47 51°25.371 2°23.683 337.8 13.2 337.2 36.7
2001-10-30 09:48:47 51°25.574 2°23.547 340 13.4 338.8 37
2001-10-30 09:49:47 51°25.779 2°23.413 337.8 13.4 338 37.6
2001-10-30 09:50:47 51°25.984 2°23.277 336 13.6 335.9 36.4
2001-10-30 09:51:47 51°26.192 2°23.145 342.7 13.6 341 37.9
2001-10-30 09:52:47 51°26.402 2°23.012 337.7 13.7 338.7 23.7
2001-10-30 09:53:47 51°26.612 2°22.888 339 13.4 340.4 20.1
2001-10-30 09:54:47 51°26.818 2°22.756 339.3 13.4 338.4 26.6
2001-10-30 09:55:47 51°27.026 2°22.632 339.2 13.4 337.7 29
2001-10-30 09:56:47 51°27.234 2°22.498 340.7 13.4 339 33.5
2001-10-30 09:57:47 51°27.444 2°22.37 340.7 13.5 339.5 33.2
2001-10-30 09:58:48 51°27.655 2°22.231 338 13.5 338.6 29.7
2001-10-30 09:59:47 51°27.862 2°22.108 339 13.5 338.3 25.9
2001-10-30 10:00:47 51°28.072 2°21.98 339.5 13.5 339.4 28.2
2001-10-30 10:01:47 51°28.279 2°21.842 337.8 13.5 338.4 34.1
2001-10-30 10:02:46 51°28.486 2°21.714 339 13.7 339.4 36.6
2001-10-30 10:03:46 51°28.7 2°21.604 347 13.7 346.9 39
2001-10-30 10:04:46 51°28.922 2°21.52 348.2 13.8 348.3 38.5
2001-10-30 10:05:46 51°29.148 2°21.458 351.2 13.7 351.1 37.4
2001-10-30 10:06:47 51°29.373 2°21.376 348.3 13.5 348.6 37.7
2001-10-30 10:07:47 51°29.595 2°21.306 348.7 13.7 347.7 37.8
2001-10-30 10:08:46 51°29.814 2°21.23 351.5 13.6 350.2 37.2
2001-10-30 10:09:46 51°30.039 2°21.16 346.8 13.7 346 33.1
2001-10-30 10:10:46 51°30.264 2°21.092 354.2 13.9 352.8 34.6
2001-10-30 10:11:47 51°30.497 2°21.043 352.5 13.8 353.5 31.5
2001-10-30 10:12:47 51°30.725 2°20.99 351.5 13.9 349.7 33.9
2001-10-30 10:13:48 51°30.958 2°20.927 350.7 13.9 350.5 32.4
2001-10-30 10:14:47 51°31.18 2°20.87 350.7 13.7 349.5 33.3
2001-10-30 10:15:47 51°31.41 2°20.849 359.7 14 358.7 32
2001-10-30 10:16:47 51°31.642 2°20.876 6 14.1 5.5 37.8
2001-10-30 10:17:47 51°31.874 2°20.897 4.8 14.1 4.7 42
2001-10-30 10:18:47 51°32.106 2°20.906 3.2 13.9 0.9 41.6
2001-10-30 10:19:47 51°32.337 2°20.932 9.2 13.9 7.2 40.7
2001-10-30 10:20:47 51°32.569 2°20.988 15.2 14.2 13.2 40.8
2001-10-30 10:21:47 51°32.797 2°21.078 16.2 14.2 14 40
2001-10-30 10:22:47 51°33.015 2°21.228 32.5 14.3 28.7 39.1
2001-10-30 10:23:46 51°33.222 2°21.416 34.8 14.6 31.7 40
2001-10-30 10:24:47 51°33.426 2°21.632 36 14.2 33.3 38.8
2001-10-30 10:25:47 51°33.618 2°21.863 40.7 14.6 37.8 39.5
2001-10-30 10:26:46 51°33.808 2°22.086 36.2 14.2 33.7 38.2
2001-10-30 10:27:46 51°34.002 2°22.303 37.8 14.1 35 39.1
2001-10-30 10:28:47 51°34.197 2°22.534 40.8 14.6 37.8 39.9
2001-10-30 10:29:47 51°34.392 2°22.762 36.7 14.6 34.8 39.6
2001-10-30 10:30:47 51°34.591 2°22.983 35.7 14.6 34.9 40.2
2001-10-30 10:31:47 51°34.782 2°23.212 36.2 14.2 36.3 39.7
2001-10-30 10:32:47 51°34.975 2°23.432 37.8 14.2 35 38.2
2001-10-30 10:33:47 51°35.17 2°23.654 37.3 14.3 35.6 39.1
2001-10-30 10:34:47 51°35.359 2°23.892 41.5 14.8 38.8 39.3
2001-10-30 10:35:47 51°35.561 2°24.108 31.5 14.6 30.8 39.7
2001-10-30 10:36:47 51°35.756 2°24.338 44.8 14.8 40.2 40.1
2001-10-30 10:37:47 51°35.947 2°24.577 37.8 14.4 33.5 39.4
2001-10-30 10:38:47 51°36.15 2°24.789 36.8 14.5 33.5 37.8
2001-10-30 10:39:47 51°36.343 2°25.028 40.3 14.7 36.9 40.2
2001-10-30 10:40:47 51°36.541 2°25.247 32.7 14.4 31.7 38.7
2001-10-30 10:41:47 51°36.737 2°25.473 40.7 14.7 37 39.8
2001-10-30 10:42:47 51°36.93 2°25.705 38 14.2 34.3 40.3
2001-10-30 10:43:47 51°37.121 2°25.934 35.8 14.3 34.9 40.2
2001-10-30 10:44:47 51°37.315 2°26.152 35.5 14.7 34.6 39.6
2001-10-30 10:45:47 51°37.51 2°26.38 36.5 14.5 33.7 39.9
2001-10-30 10:46:47 51°37.703 2°26.607 40 14.3 35.9 37.1
2001-10-30 10:47:47 51°37.902 2°26.834 38.5 14.5 35.5 39.5
2001-10-30 10:48:47 51°38.103 2°27.069 38.3 14.7 34.1 38.3
2001-10-30 10:49:47 51°38.298 2°27.294 40.7 14.5 37.6 40.7
2001-10-30 10:50:47 51°38.497 2°27.537 38.5 15 36.1 41.8
2001-10-30 10:51:47 51°38.695 2°27.764 39.8 14.6 35.5 38.4
2001-10-30 10:52:47 51°38.891 2°27.993 41.7 14.7 38 38.7
2001-10-30 10:53:47 51°39.095 2°28.211 35.7 14.5 34.6 37.6
2001-10-30 10:54:47 51°39.29 2°28.45 40.7 14.7 39 32.8
2001-10-30 10:55:47 51°39.487 2°28.683 35.3 14.7 35.1 39.4
2001-10-30 10:56:47 51°39.686 2°28.919 39.5 14.6 36.5 38.8
2001-10-30 10:57:47 51°39.882 2°29.139 39.5 14.2 36.6 38.7
2001-10-30 10:58:47 51°40.076 2°29.369 41.5 14.7 37.1 37.8
2001-10-30 10:59:47 51°40.269 2°29.589 37.2 14 36 37.5
2001-10-30 11:00:47 51°40.465 2°29.821 37 15 34.5 38.8
2001-10-30 11:01:47 51°40.663 2°30.058 40.7 14.7 38.4 35.6
2001-10-30 11:02:47 51°40.872 2°30.263 27.2 14.7 26 38.1
2001-10-30 11:03:47 51°41.091 2°30.423 19.5 14.3 18.8 37.6
2001-10-30 11:04:47 51°41.321 2°30.552 21.7 14.8 19 37.9
2001-10-30 11:05:47 51°41.558 2°30.628 7.8 14 6.8 39.1
2001-10-30 11:06:47 51°41.792 2°30.662 7.7 14.2 7.4 40.7
2001-10-30 11:07:47 51°42.026 2°30.749 13.7 14.6 13.6 40.9
2001-10-30 11:08:47 51°42.264 2°30.818 8.5 14.7 8.9 39.8
2001-10-30 11:09:47 51°42.5 2°30.88 10.2 14.4 10.4 37.6
2001-10-30 11:10:47 51°42.734 2°30.967 13.2 14.4 12.5 37
2001-10-30 11:11:47 51°42.971 2°31.031 13.8 14.5 11.8 41.9
2001-10-30 11:12:47 51°43.149 2°31.273 68.2 14.6 62 39.1
2001-10-30 11:13:47 51°43.175 2°31.644 108.3 13.6 98.8 40.7
2001-10-30 11:14:47 51°43.078 2°31.964 130 13.3 121.6 39.8
2001-10-30 11:15:47 51°42.956 2°32.255 135.7 13 125.8 39
2001-10-30 11:16:47 51°42.824 2°32.531 137 13 128.8 41.6
2001-10-30 11:17:47 51°42.688 2°32.8 139.3 12.9 129.5 42.1
2001-10-30 11:18:47 51°42.553 2°33.068 137.8 12.9 127.5 40
2001-10-30 11:19:47 51°42.422 2°33.342 136.8 12.9 126.2 42.2
2001-10-30 11:20:47 51°42.287 2°33.608 133.8 13 124.2 41.4
2001-10-30 11:21:47 51°42.147 2°33.864 143.2 12.7 133.1 41.6
2001-10-30 11:22:47 51°42.01 2°34.128 138.2 12.9 129.2 41.6
2001-10-30 11:23:47 51°41.873 2°34.393 139.7 12.8 129.8 41.1
2001-10-30 11:24:47 51°41.736 2°34.657 139.5 12.9 129 38
2001-10-30 11:25:47 51°41.599 2°34.925 140.8 12.9 131.9 39.4
2001-10-30 11:26:47 51°41.46 2°35.192 139.3 13 130.5 36.6
2001-10-30 11:27:47 51°41.323 2°35.464 138.7 13.1 128.7 32.9
2001-10-30 11:28:47 51°41.186 2°35.733 141.5 12.9 130.2 31.2
2001-10-30 11:29:47 51°41.053 2°36.012 135.7 13.2 125.7 27.9
2001-10-30 11:30:47 51°40.926 2°36.303 135.2 13.4 124.9 21.4
2001-10-30 11:31:47 51°40.798 2°36.594 135.7 13.4 126 29.8
2001-10-30 11:32:47 51°40.675 2°36.887 133.8 13.2 123.1 36.9
2001-10-30 11:33:47 51°40.564 2°37.196 128.8 13.2 119.4 40.1
2001-10-30 11:34:47 51°40.466 2°37.516 127.5 13.2 116.6 41.5
2001-10-30 11:35:47 51°40.365 2°37.833 128.3 13.3 116.7 43.5
2001-10-30 11:36:47 51°40.271 2°38.159 125.3 13.6 113.7 43.5
2001-10-30 11:37:47 51°40.176 2°38.477 126.3 13.3 116.3 40.8
2001-10-30 11:38:47 51°40.08 2°38.798 126.2 13.2 113.6 38.6
2001-10-30 11:39:47 51°39.989 2°39.124 124 13.5 112.7 43.2
2001-10-30 11:40:47 51°39.894 2°39.447 126.8 13.3 116.4 43
2001-10-30 11:41:47 51°39.803 2°39.772 125.3 13.3 114.2 40.2
2001-10-30 11:42:47 51°39.71 2°40.1 126.7 13.5 114.4 34.2
2001-10-30 11:43:47 51°39.616 2°40.425 125.2 13.4 114.8 36.1
2001-10-30 11:44:47 51°39.524 2°40.753 125.5 13.3 114 36.8
2001-10-30 11:45:47 51°39.431 2°41.078 124.7 13.4 112.6 35.9
2001-10-30 11:46:48 51°39.345 2°41.422 124.7 13.6 114.1 26.5
2001-10-30 11:47:47 51°39.256 2°41.754 124.7 13.5 114 26.5
2001-10-30 11:48:47 51°39.168 2°42.088 124.2 13.6 114.8 29.6
2001-10-30 11:49:47 51°39.078 2°42.42 124.2 13.5 114.8 33.7
2001-10-30 11:50:47 51°38.989 2°42.748 123.8 13.4 113.6 38.4
2001-10-30 11:51:47 51°38.897 2°43.073 124.7 13.3 114.5 38.4
2001-10-30 11:52:47 51°38.813 2°43.404 123.8 13.3 111.4 39
2001-10-30 11:53:47 51°38.733 2°43.737 123.8 13.3 112.8 38
2001-10-30 11:54:48 51°38.652 2°44.075 122.8 13.3 111.8 37
2001-10-30 11:55:47 51°38.567 2°44.4 123.7 13.4 111.9 37.9
2001-10-30 11:56:47 51°38.485 2°44.733 120.2 13.5 109.7 37.1
2001-10-30 11:57:47 51°38.402 2°45.064 123.5 13.4 112.5 36
2001-10-30 11:58:47 51°38.317 2°45.394 122.7 13.4 113 39.1
2001-10-30 11:59:47 51°38.237 2°45.73 124.2 13.5 112.8 34.6
2001-10-30 12:00:47 51°38.081 2°45.913 180.2 11.3 171.7 36.9
2001-10-30 12:01:47 51°37.9 2°45.854 193.5 11.2 187.4 38.1
2001-10-30 12:02:47 51°37.714 2°45.801 197.8 11.3 191.8 37.4
2001-10-30 12:03:47 51°37.528 2°45.764 200.2 11.1 194.2 37.5
2001-10-30 12:04:47 51°37.345 2°45.711 192.3 11.5 185.2 38.2
2001-10-30 12:05:47 51°37.163 2°45.639 198.3 11.4 192.7 35
2001-10-30 12:06:47 51°36.98 2°45.579 199.2 11.2 192.5 36.6
2001-10-30 12:07:47 51°36.808 2°45.473 215.8 11.1 212.8 36
2001-10-30 12:08:47 51°36.734 2°45.209 264.7 11.8 268.2 38.7
2001-10-30 12:09:47 51°36.821 2°44.909 302.5 13.1 307.7 37.8
2001-10-30 12:10:47 51°36.95 2°44.628 300.3 13 305.4 37.8
2001-10-30 12:11:47 51°37.064 2°44.336 292 12.7 298 38.3
2001-10-30 12:12:47 51°37.193 2°44.051 296.2 13 301.7 39.1
2001-10-30 12:13:47 51°37.33 2°43.776 302.3 13.3 307.7 35.3
2001-10-30 12:14:47 51°37.477 2°43.499 305.7 13.5 311.5 37.4
2001-10-30 12:15:47 51°37.623 2°43.225 303.8 13.5 308.8 38
2001-10-30 12:16:47 51°37.762 2°42.942 301 13.3 306.1 39
2001-10-30 12:17:47 51°37.886 2°42.647 298.5 13.5 304.2 38.9
2001-10-30 12:18:47 51°37.996 2°42.342 291.2 13 296.3 37
2001-10-30 12:19:47 51°38.021 2°42.018 268 12.1 272.3 33.3
2001-10-30 12:20:47 51°38.028 2°41.695 265.3 11.9 269.5 25.4
2001-10-30 12:21:47 51°38.032 2°41.383 268.2 11.7 272.8 25.6
2001-10-30 12:22:47 51°38.038 2°41.064 263.2 11.9 267.2 23.2
2001-10-30 12:23:47 51°38.032 2°40.747 264.7 11.9 269.1 24.3
2001-10-30 12:24:47 51°38.018 2°40.438 248.3 11.3 252.4 31.2
2001-10-30 12:25:47 51°37.92 2°40.18 236.5 11.4 238.5 34.8
2001-10-30 12:26:47 51°37.797 2°39.958 218.3 11 217.8 36.7
2001-10-30 12:27:47 51°37.638 2°39.81 209 11.1 207.6 37.6
2001-10-30 12:28:47 51°37.473 2°39.676 209.8 11.2 207.7 38.7
2001-10-30 12:29:47 51°37.308 2°39.54 209.8 11.1 207.4 38.6
2001-10-30 12:30:47 51°37.142 2°39.4 209.8 11.2 207.8 39.9
2001-10-30 12:31:47 51°36.977 2°39.264 209.8 11.1 207.8 40.1
2001-10-30 12:32:47 51°36.808 2°39.135 206.2 11.2 202.3 41.3
2001-10-30 12:33:47 51°36.636 2°39.018 206.8 11.2 203.2 39.4
2001-10-30 12:34:47 51°36.46 2°38.915 202.7 11.3 198.5 39.3
2001-10-30 12:35:47 51°36.285 2°38.814 203.8 11.1 199.6 39
2001-10-30 12:36:47 51°36.11 2°38.713 203.3 11.3 199.2 38.8
2001-10-30 12:37:47 51°35.934 2°38.612 203.7 11.2 199.7 39.2
2001-10-30 12:38:47 51°35.757 2°38.508 203.3 11.3 200.1 40.9
2001-10-30 12:39:47 51°35.581 2°38.405 203.5 11.1 200.4 41
2001-10-30 12:40:47 51°35.406 2°38.307 198.5 11 194.5 40
2001-10-30 12:41:47 51°35.242 2°38.446 140.5 12.6 130.1 41.4
2001-10-30 12:42:47 51°35.108 2°38.708 143.3 12.6 132.5 38.9
2001-10-30 12:43:47 51°34.97 2°38.964 142.7 12.6 131 35.6
2001-10-30 12:44:47 51°34.828 2°39.216 143.7 12.7 132.3 32.8
2001-10-30 12:45:47 51°34.692 2°39.477 138.2 12.9 126.8 28.6
2001-10-30 12:46:47 51°34.571 2°39.765 133.7 13.1 122.3 24.2
2001-10-30 12:47:47 51°34.447 2°40.048 135.7 12.9 126.6 19.4
2001-10-30 12:48:47 51°34.329 2°40.341 128.2 13.2 119.2 28.1
2001-10-30 12:49:47 51°34.224 2°40.647 129.3 12.8 120.1 40.1
2001-10-30 12:50:47 51°34.118 2°40.95 129.3 13 119.4 39.8
2001-10-30 12:51:47 51°34.018 2°41.25 130.3 12.8 118.4 41.3
2001-10-30 12:52:47 51°33.917 2°41.557 129.3 13.1 118.5 41.5
2001-10-30 12:53:47 51°33.813 2°41.861 129.3 13 117.7 38.5
2001-10-30 12:54:47 51°33.693 2°42.141 142.2 12.5 130.2 38.2
2001-10-30 12:55:47 51°33.543 2°42.365 149.5 12.3 139.4 37.9
2001-10-30 12:56:47 51°33.383 2°42.57 151.3 12.2 140.9 35.2
2001-10-30 12:57:47 51°33.224 2°42.769 160.2 12 150.2 33.8
2001-10-30 12:58:47 51°33.04 2°42.796 197.2 10.9 192.5 33.7
2001-10-30 12:59:47 51°32.861 2°42.711 197.3 11.3 192.8 32.6
2001-10-30 13:00:47 51°32.68 2°42.632 200 11.2 196.2 34.2
2001-10-30 13:01:47 51°32.499 2°42.549 199.7 11.4 196.4 35.5
2001-10-30 13:02:47 51°32.318 2°42.466 199.8 11.4 195.5 35.7
2001-10-30 13:03:47 51°32.136 2°42.382 201.3 11.5 197.1 35.6
2001-10-30 13:04:47 51°31.957 2°42.284 203.3 11.3 199.8 35.5
2001-10-30 13:05:47 51°31.782 2°42.172 206.8 11.4 204.8 33.8
2001-10-30 13:06:47 51°31.612 2°42.043 209.7 11.3 207.5 35.2
2001-10-30 13:07:47 51°31.447 2°41.901 209.8 11.3 207.5 34.3
2001-10-30 13:08:47 51°31.287 2°41.748 216 11.2 214.4 37.7
2001-10-30 13:09:47 51°31.132 2°41.577 214.3 11.4 213.1 38
2001-10-30 13:10:47 51°30.974 2°41.412 215.3 11.3 213.7 38.2
2001-10-30 13:11:47 51°30.827 2°41.22 220.7 11.4 219.9 39.5
2001-10-30 13:12:47 51°30.687 2°41.017 225.7 11.3 226.2 38.3
2001-10-30 13:13:47 51°30.555 2°40.796 226.7 11.4 226.7 36.1
2001-10-30 13:14:47 51°30.437 2°40.555 235.2 11.6 235.9 37
2001-10-30 13:15:47 51°30.37 2°40.262 257 12 259.7 41
2001-10-30 13:16:47 51°30.348 2°39.938 259.2 12.1 262.6 43.2
2001-10-30 13:17:47 51°30.318 2°39.623 255.2 11.9 259.1 38.8
2001-10-30 13:18:47 51°30.281 2°39.309 255.3 12 259.6 40.1
2001-10-30 13:19:47 51°30.245 2°38.996 254.7 11.9 258.6 41.5
2001-10-30 13:20:47 51°30.215 2°38.679 260.8 12.1 264.5 39.7
2001-10-30 13:21:47 51°30.199 2°38.358 260.7 12.1 263.6 39.4
2001-10-30 13:22:47 51°30.178 2°38.034 260.3 12.2 264.4 38.3
2001-10-30 13:23:47 51°30.159 2°37.712 261.2 12.2 264.1 32.5
2001-10-30 13:24:47 51°30.138 2°37.396 260.3 11.9 263.9 24.6
2001-10-30 13:25:47 51°30.121 2°37.082 260.5 11.8 264.7 26.1
2001-10-30 13:26:47 51°30.103 2°36.765 260.3 12 264.7 27.3
2001-10-30 13:27:47 51°30.088 2°36.448 260.5 12 265.6 30.5
2001-10-30 13:28:47 51°30.075 2°36.128 261 12 266.2 36.3
2001-10-30 13:29:47 51°30.051 2°35.815 251 11.7 255 38.8
2001-10-30 13:30:47 51°29.976 2°35.532 241 11.6 244.8 40.9
2001-10-30 13:31:47 51°29.893 2°35.254 239.2 11.5 241.8 40.6
2001-10-30 13:32:47 51°29.793 2°34.994 234.3 11.5 235.3 40.3
2001-10-30 13:33:47 51°29.666 2°34.767 223 11.5 223.2 39.3
2001-10-30 13:34:47 51°29.514 2°34.587 213.3 11.3 212 40.1
2001-10-30 13:35:47 51°29.332 2°34.505 188 11.7 184.2 37.9
2001-10-30 13:36:47 51°29.145 2°34.593 162.2 12 154.1 37.3
2001-10-30 13:37:47 51°28.961 2°34.707 170.2 11.8 161.7 41.3
2001-10-30 13:38:47 51°28.775 2°34.804 170 11.8 161.6 38.5
2001-10-30 13:39:47 51°28.592 2°34.907 169.2 11.7 160.3 36.2
2001-10-30 13:40:47 51°28.407 2°35.009 169.2 11.8 159.9 37.3
2001-10-30 13:41:47 51°28.221 2°35.108 170.2 11.9 161.6 35.2
2001-10-30 13:42:47 51°28.035 2°35.22 162.3 12 153.3 32.5
2001-10-30 13:43:47 51°27.863 2°35.389 158.7 12.2 150.5 31.1
2001-10-30 13:44:47 51°27.684 2°35.545 159.8 12.3 152.4 28.6
2001-10-30 13:45:47 51°27.504 2°35.701 159.7 12.3 152.1 29.7
2001-10-30 13:46:47 51°27.323 2°35.853 159.8 12.3 153.5 32
2001-10-30 13:47:47 51°27.143 2°36.003 158.8 12.1 151.4 33.3
2001-10-30 13:48:47 51°26.963 2°36.152 159.2 12.2 153.5 34.2
2001-10-30 13:49:47 51°26.781 2°36.302 160.2 12.3 152.8 34.7
2001-10-30 13:50:47 51°26.602 2°36.454 159.5 12.2 151.6 34.2
2001-10-30 13:51:47 51°26.417 2°36.576 172.2 11.9 165.1 34.7
2001-10-30 13:52:47 51°26.225 2°36.662 170 12 162.1 34.8
2001-10-30 13:53:47 51°26.035 2°36.758 169.8 12.1 162 34.2
2001-10-30 13:54:47 51°25.842 2°36.855 169.7 12.2 162.8 36.3
2001-10-30 13:55:47 51°25.649 2°36.951 170.3 12.1 163 36.1
2001-10-30 13:56:47 51°25.456 2°37.046 169.8 12.1 162.8 35.4
2001-10-30 13:57:47 51°25.264 2°37.144 170.2 12.1 162.6 33.7
2001-10-30 13:58:47 51°25.071 2°37.242 170.5 12.2 163.6 33.3
2001-10-30 13:59:47 51°24.877 2°37.34 169.8 12.2 162.1 32.7
2001-10-30 14:00:47 51°24.685 2°37.438 169.2 12.2 162.6 31.8
2001-10-30 14:01:48 51°24.486 2°37.533 169.8 12.3 164.1 32.4
2001-10-30 14:02:47 51°24.299 2°37.652 160.3 12.4 154.1 29.4
2001-10-30 14:03:47 51°24.115 2°37.797 167.2 12.1 160.2 25.7
2001-10-30 14:04:47 51°23.917 2°37.863 174 12.2 169.5 24.8
2001-10-30 14:05:47 51°23.719 2°37.923 174.8 12.2 169.8 26.2
2001-10-30 14:06:47 51°23.52 2°37.98 174.5 12.2 169.3 26.8
2001-10-30 14:07:47 51°23.321 2°38.042 175 12.3 168.7 28.9
2001-10-30 14:08:47 51°23.121 2°38.101 174.8 12.2 168.7 30.7
2001-10-30 14:09:47 51°22.921 2°38.148 181.3 12.1 176.2 31.3
2001-10-30 14:10:47 51°22.719 2°38.172 179.8 12.2 175.7 31.4
2001-10-30 14:11:48 51°22.511 2°38.201 179.5 12.3 174.9 31.2
2001-10-30 14:12:47 51°22.309 2°38.223 180.5 12.3 175.9 30.9
2001-10-30 14:13:47 51°22.105 2°38.249 180.3 12.4 176.1 30.9
2001-10-30 14:14:48 51°21.896 2°38.287 170.8 12.4 166.9 29.6
2001-10-30 14:15:47 51°21.705 2°38.396 164.7 12.5 160.1 28.6
2001-10-30 14:16:48 51°21.506 2°38.505 162.2 12.4 158.4 28.1
2001-10-30 14:17:47 51°21.327 2°38.659 150.7 12.6 146.1 26.9
2001-10-30 14:18:47 51°21.193 2°38.924 123.5 13.1 118.7 26.4
2001-10-30 14:19:48 51°21.086 2°39.235 126 13.2 119.7 26.5
2001-10-30 14:20:47 51°21.009 2°39.556 113.8 13.2 108.7 26.4
2001-10-30 14:21:47 51°20.941 2°39.89 115.5 13.2 110.2 26
2001-10-30 14:22:48 51°20.849 2°40.213 121.3 13.2 115.2 27.4
2001-10-30 14:23:48 51°20.763 2°40.534 119.8 13 114.1 26.7
2001-10-30 14:24:47 51°20.677 2°40.85 118.8 13.2 112.1 27
2001-10-30 14:25:47 51°20.594 2°41.178 119.2 13.3 111.3 28.8
2001-10-30 14:26:47 51°20.503 2°41.499 119.8 13.2 114 21.1
2001-10-30 14:27:47 51°20.414 2°41.817 120 13.2 114.2 20.5
2001-10-30 14:28:47 51°20.324 2°42.134 119.5 13.1 113.5 20.3
2001-10-30 14:29:48 51°20.232 2°42.455 120.2 13 115.2 22.5
2001-10-30 14:30:47 51°20.143 2°42.77 119.5 13.2 113.6 26
2001-10-30 14:31:48 51°20.052 2°43.094 119.7 13.2 113.6 27.4
2001-10-30 14:32:48 51°19.964 2°43.412 120 13 114.4 27.4
2001-10-30 14:33:48 51°19.875 2°43.733 119.5 13.2 114 25.8
2001-10-30 14:34:47 51°19.786 2°44.048 119.3 13.2 113.3 25.2
2001-10-30 14:35:47 51°19.696 2°44.37 119.2 13.2 113.9 24
2001-10-30 14:36:48 51°19.606 2°44.698 120.7 13.2 114.6 22.8
2001-10-30 14:37:48 51°19.52 2°45.019 118.7 13.1 113.5 19.2
2001-10-30 14:38:47 51°19.432 2°45.329 120.3 12.9 114 12.6
2001-10-30 14:39:48 51°19.34 2°45.647 119.2 13.1 114.1 15.2
2001-10-30 14:40:48 51°19.25 2°45.962 119.5 13.1 113.8 19.6
2001-10-30 14:41:48 51°19.16 2°46.279 118.8 13 114 21.9
2001-10-30 14:42:47 51°19.069 2°46.591 120.2 13.3 114.6 22.1
2001-10-30 14:43:48 51°18.976 2°46.915 119.3 13.2 113.5 21.5
2001-10-30 14:44:47 51°18.885 2°47.229 120.8 13.2 115.2 20
2001-10-30 14:45:48 51°18.791 2°47.554 119.3 13.3 114 18.1
2001-10-30 14:46:47 51°18.701 2°47.864 119.7 13 114.2 16
2001-10-30 14:47:48 51°18.609 2°48.185 116.3 13 111.8 14.5
2001-10-30 14:48:47 51°18.53 2°48.503 116.3 12.9 111.4 11.9
2001-10-30 14:49:48 51°18.448 2°48.827 116.5 12.9 112.4 10.9
2001-10-30 14:50:48 51°18.369 2°49.145 115.3 12.7 110.5 11.1
2001-10-30 14:51:47 51°18.287 2°49.458 117.5 13.1 112.8 12.1
2001-10-30 14:52:47 51°18.201 2°49.779 117.8 13.2 112.5 14.4
2001-10-30 14:53:47 51°18.117 2°50.098 117.8 13.1 113.4 14.5
2001-10-30 14:54:47 51°18.032 2°50.42 117.8 13.2 113.6 13.9
2001-10-30 14:55:48 51°17.945 2°50.741 120.2 12.9 114.8 13.1
2001-10-30 14:56:47 51°17.854 2°51.048 120.5 12.9 115.2 11.9
2001-10-30 14:57:48 51°17.76 2°51.364 118.8 13.1 114.1 10.8
2001-10-30 14:58:48 51°17.667 2°51.676 120.3 13.1 115.9 10.6
2001-10-30 14:59:47 51°17.553 2°51.959 131 12.8 127.1 11
2001-10-30 15:00:47 51°17.409 2°52.206 140.8 12.8 137.3 10.9
2001-10-30 15:01:48 51°17.234 2°52.403 152.8 12.6 151.3 10.7
2001-10-30 15:02:47 51°17.054 2°52.564 152.8 12.6 149.9 10
2001-10-30 15:03:47 51°16.874 2°52.74 152.2 12.6 147.4 9.7
2001-10-30 15:04:47 51°16.691 2°52.909 152.3 13 149.3 11.7
2001-10-30 15:05:47 51°16.506 2°53.079 152.3 12.9 148.9 12.6
2001-10-30 15:06:48 51°16.317 2°53.251 152.3 13 149.7 12.8
2001-10-30 15:07:47 51°16.134 2°53.417 152.8 12.8 150 12.6
2001-10-30 15:08:48 51°15.945 2°53.591 152.7 12.9 149.6 12.2
2001-10-30 15:09:48 51°15.76 2°53.758 153.2 12.7 151.4 11.6
2001-10-30 15:10:47 51°15.576 2°53.921 152.5 12.6 150.9 10.8
2001-10-30 15:11:47 51°15.391 2°54.087 153.2 12.7 150.8 10.1
2001-10-30 15:12:48 51°15.203 2°54.255 153.7 12.6 150.6 9.2
2001-10-30 15:13:48 51°15.02 2°54.429 152.5 12.7 149.2 8.8
2001-10-30 15:14:47 51°14.839 2°54.595 152.3 12.7 149.2 9.8
2001-10-30 15:15:47 51°14.691 2°54.698 163.3 8.3 162.9 9.9
2001-10-30 15:16:48 51°14.538 2°54.833 152.2 10.9 149.1 -999
2001-10-30 15:17:47 51°14.402 2°55.013 135.2 10.4 133.2 10.5
2001-10-30 15:18:47 51°14.3 2°55.2 134.2 8.6 130.9 10.7
2001-10-30 15:19:48 51°14.197 2°55.353 147.5 8.3 143.7 10.6
2001-10-30 15:20:48 51°14.083 2°55.447 158.2 7.3 154.8 10.5
2001-10-30 15:21:47 51°13.976 2°55.525 158.3 7.1 154.4 11.1
2001-10-30 15:22:47 51°13.869 2°55.602 157.5 6.6 154 10.4
2001-10-30 15:23:48 51°13.798 2°55.657 151.3 3.6 149.3 10.6
2001-10-30 15:24:48 51°13.763 2°55.71 133.2 2.7 129.4 10.2
2001-10-30 15:25:47 51°13.731 2°55.773 133.7 3.4 130 10.8
2001-10-30 15:26:48 51°13.702 2°55.835 120.3 2.5 118.1 9.9
2001-10-30 15:27:48 51°13.689 2°55.895 118.2 2.2 110.5 8.3
2001-10-30 15:28:47 51°13.687 2°55.905 126.2 0.1 86 8.2